Time;durP1;ratioP1;P1;durP2;ratioP2;P2;SDS_P1;SDS_P2;PMS_P1;PMS_P2;Temp;Humidity;BMP_temperature;BMP_pressure;BME280_temperature;BME280_humidity;BME280_pressure;Samples;Min_cycle;Max_cycle;Signal;HPM_P1;HPM_P2
2023/04/16 00:00:58;;;;;;;78.22;23.40;;;;;;;;;;5071754;28;20043;-80
2023/04/16 00:03:24;;;;;;;72.78;20.73;;;;;;;;;;5044954;28;20521;-80
2023/04/16 00:05:50;;;;;;;67.57;19.73;;;;;;;;;;5069678;28;20393;-80
2023/04/16 00:08:16;;;;;;;78.28;21.42;;;;;;;;;;5052405;28;20147;-80
2023/04/16 00:10:42;;;;;;;81.40;21.42;;;;;;;;;;5052746;28;20510;-81
2023/04/16 00:13:09;;;;;;;84.35;21.88;;;;;;;;;;5052727;28;20040;-81
2023/04/16 00:15:35;;;;;;;91.57;21.42;;;;;;;;;;5051985;28;20091;-80
2023/04/16 00:18:01;;;;;;;88.93;20.48;;;;;;;;;;5053726;28;20108;-81
2023/04/16 00:20:27;;;;;;;80.47;21.55;;;;;;;;;;5053064;28;20090;-81
2023/04/16 00:22:53;;;;;;;86.13;21.58;;;;;;;;;;5085493;28;20068;-80
2023/04/16 00:25:19;;;;;;;77.25;21.17;;;;;;;;;;5051838;28;20040;-81
2023/04/16 00:27:45;;;;;;;73.85;21.85;;;;;;;;;;5053252;28;20039;-80
2023/04/16 00:30:11;;;;;;;79.88;22.33;;;;;;;;;;5051968;28;20045;-80
2023/04/16 00:32:37;;;;;;;98.57;23.25;;;;;;;;;;5051652;28;20098;-81
2023/04/16 00:35:04;;;;;;;91.57;22.58;;;;;;;;;;5052068;28;20045;-81
2023/04/16 00:37:30;;;;;;;93.63;22.48;;;;;;;;;;5051307;28;20049;-81
2023/04/16 00:39:56;;;;;;;92.68;22.77;;;;;;;;;;5052982;28;20071;-81
2023/04/16 00:42:22;;;;;;;94.85;23.33;;;;;;;;;;5052671;28;20036;-81
2023/04/16 00:44:48;;;;;;;83.55;22.58;;;;;;;;;;5053013;28;20049;-81
2023/04/16 00:47:14;;;;;;;86.68;22.88;;;;;;;;;;5052839;28;20099;-81
2023/04/16 00:49:41;;;;;;;94.20;25.08;;;;;;;;;;5052517;28;20049;-81
2023/04/16 00:52:07;;;;;;;89.35;24.30;;;;;;;;;;5068463;28;20489;-81
2023/04/16 00:54:33;;;;;;;105.68;24.27;;;;;;;;;;5067693;28;20106;-81
2023/04/16 00:57:00;;;;;;;100.13;23.40;;;;;;;;;;5052776;28;20132;-80
2023/04/16 00:59:26;;;;;;;83.93;23.55;;;;;;;;;;5034512;28;20072;-80
2023/04/16 01:01:52;;;;;;;84.15;22.98;;;;;;;;;;5044556;28;20091;-80
2023/04/16 01:04:18;;;;;;;83.57;21.15;;;;;;;;;;5051164;28;20037;-81
2023/04/16 01:06:44;;;;;;;81.32;23.00;;;;;;;;;;5052437;28;20071;-81
2023/04/16 01:09:11;;;;;;;75.40;21.05;;;;;;;;;;5051295;28;20116;-81
2023/04/16 01:11:37;;;;;;;79.88;23.38;;;;;;;;;;5050972;28;20087;-81
2023/04/16 01:14:03;;;;;;;81.20;23.17;;;;;;;;;;5052101;28;20053;-81
2023/04/16 01:16:30;;;;;;;79.63;22.42;;;;;;;;;;5052102;28;20033;-81
2023/04/16 01:18:56;;;;;;;67.43;21.67;;;;;;;;;;5052355;28;20041;-81
2023/04/16 01:21:22;;;;;;;78.00;23.83;;;;;;;;;;5034074;28;20045;-81
2023/04/16 01:23:48;;;;;;;68.88;22.20;;;;;;;;;;5051092;28;20144;-81
2023/04/16 01:26:14;;;;;;;70.63;22.13;;;;;;;;;;5050881;28;20041;-81
2023/04/16 01:28:40;;;;;;;82.55;24.00;;;;;;;;;;5050830;28;20080;-80
2023/04/16 01:31:06;;;;;;;77.50;22.67;;;;;;;;;;5052201;28;20037;-81
2023/04/16 01:33:32;;;;;;;70.18;21.75;;;;;;;;;;5050583;28;20098;-81
2023/04/16 01:35:58;;;;;;;72.03;22.48;;;;;;;;;;5060342;28;20032;-81
2023/04/16 01:38:25;;;;;;;71.90;22.80;;;;;;;;;;5070711;28;20485;-81
2023/04/16 01:40:55;;;;;;;71.43;22.88;;;;;;;;;;5054259;28;20037;-80
2023/04/16 01:43:21;;;;;;;73.13;22.33;;;;;;;;;;5071135;28;20044;-81
2023/04/16 01:45:47;;;;;;;65.30;22.13;;;;;;;;;;5071774;28;20032;-81
2023/04/16 01:48:13;;;;;;;73.88;22.38;;;;;;;;;;5072173;28;20063;-81
2023/04/16 01:50:39;;;;;;;74.60;22.42;;;;;;;;;;5071586;28;20433;-81
2023/04/16 01:53:05;;;;;;;67.95;21.33;;;;;;;;;;5072090;28;20036;-80
2023/04/16 01:55:32;;;;;;;68.15;21.80;;;;;;;;;;5070296;28;20041;-81
2023/04/16 01:57:58;;;;;;;68.18;21.52;;;;;;;;;;5071031;28;20427;-81
2023/04/16 02:00:25;;;;;;;63.05;20.80;;;;;;;;;;5069155;28;20040;-81
2023/04/16 02:02:51;;;;;;;80.68;23.60;;;;;;;;;;5048764;28;20041;-81
2023/04/16 02:05:17;;;;;;;67.93;21.73;;;;;;;;;;5051156;28;20033;-81
2023/04/16 02:07:43;;;;;;;73.22;22.98;;;;;;;;;;5050260;28;20108;-81
2023/04/16 02:10:09;;;;;;;74.20;22.92;;;;;;;;;;5050346;28;20040;-81
2023/04/16 02:12:35;;;;;;;68.47;22.30;;;;;;;;;;5051360;28;20037;-81
2023/04/16 02:15:02;;;;;;;73.60;22.02;;;;;;;;;;5065905;28;20057;-80
2023/04/16 02:17:28;;;;;;;73.85;22.75;;;;;;;;;;5051524;28;20043;-81
2023/04/16 02:19:54;;;;;;;63.60;20.98;;;;;;;;;;5050482;28;20081;-81
2023/04/16 02:22:20;;;;;;;68.75;21.95;;;;;;;;;;5052592;28;20143;-80
2023/04/16 02:24:46;;;;;;;66.72;22.23;;;;;;;;;;5055480;28;20120;-80
2023/04/16 02:27:12;;;;;;;65.22;22.27;;;;;;;;;;5055770;28;20039;-80
2023/04/16 02:29:38;;;;;;;63.08;21.55;;;;;;;;;;5054027;28;20052;-80
2023/04/16 02:32:04;;;;;;;61.95;21.13;;;;;;;;;;5054599;28;20077;-81
2023/04/16 02:34:32;;;;;;;57.25;21.63;;;;;;;;;;5055137;28;20120;-81
2023/04/16 02:36:58;;;;;;;64.82;22.02;;;;;;;;;;5070468;28;20098;-80
2023/04/16 02:39:24;;;;;;;60.55;22.05;;;;;;;;;;5074783;28;20083;-80
2023/04/16 02:41:51;;;;;;;54.15;21.50;;;;;;;;;;5055134;28;20033;-81
2023/04/16 02:44:17;;;;;;;65.40;23.13;;;;;;;;;;5037386;28;20123;-81
2023/04/16 02:46:44;;;;;;;58.55;22.70;;;;;;;;;;5053927;28;20115;-81
2023/04/16 02:49:10;;;;;;;52.85;20.52;;;;;;;;;;5053568;28;20045;-81
2023/04/16 02:51:36;;;;;;;56.15;22.60;;;;;;;;;;5053928;28;20513;-81
2023/04/16 02:54:02;;;;;;;55.83;22.15;;;;;;;;;;5037724;28;20513;-80
2023/04/16 02:56:28;;;;;;;48.00;20.63;;;;;;;;;;5055069;28;20498;-80
2023/04/16 02:58:54;;;;;;;52.00;22.20;;;;;;;;;;5053439;28;20053;-80
2023/04/16 03:01:20;;;;;;;46.95;20.63;;;;;;;;;;5064188;28;20038;-81
2023/04/16 03:03:46;;;;;;;44.78;20.15;;;;;;;;;;5053344;28;20048;-80
2023/04/16 03:06:12;;;;;;;42.17;19.38;;;;;;;;;;5053734;28;20040;-80
2023/04/16 03:08:39;;;;;;;47.70;19.98;;;;;;;;;;5053016;28;20041;-80
2023/04/16 03:11:05;;;;;;;51.65;19.17;;;;;;;;;;5053533;28;20131;-81
2023/04/16 03:13:31;;;;;;;51.83;21.63;;;;;;;;;;5054760;28;20045;-80
2023/04/16 03:15:57;;;;;;;48.15;20.08;;;;;;;;;;5054140;28;20049;-80
2023/04/16 03:18:23;;;;;;;53.58;20.10;;;;;;;;;;5053350;28;20041;-81
2023/04/16 03:20:53;;;;;;;54.13;21.60;;;;;;;;;;5053088;28;20136;-81
2023/04/16 03:23:19;;;;;;;53.80;20.95;;;;;;;;;;5053590;28;20452;-80
2023/04/16 03:25:46;;;;;;;63.55;22.42;;;;;;;;;;5053082;28;20115;-81
2023/04/16 03:28:13;;;;;;;52.33;20.98;;;;;;;;;;5053574;28;20562;-81
2023/04/16 03:30:39;;;;;;;61.53;21.90;;;;;;;;;;5054106;28;20379;-81
2023/04/16 03:33:05;;;;;;;57.58;21.40;;;;;;;;;;5053361;28;20565;-81
2023/04/16 03:35:32;;;;;;;59.42;22.38;;;;;;;;;;5035378;28;20060;-80
2023/04/16 03:37:58;;;;;;;61.55;22.30;;;;;;;;;;5052821;28;20052;-81
2023/04/16 03:40:24;;;;;;;55.60;22.15;;;;;;;;;;5036611;28;20084;-81
2023/04/16 03:42:50;;;;;;;56.30;22.40;;;;;;;;;;5052397;28;20037;-80
2023/04/16 03:45:17;;;;;;;67.28;22.95;;;;;;;;;;5052932;28;20047;-81
2023/04/16 03:47:43;;;;;;;62.20;23.25;;;;;;;;;;5052480;28;20044;-81
2023/04/16 03:50:10;;;;;;;65.03;23.38;;;;;;;;;;5052923;28;20044;-80
2023/04/16 03:52:36;;;;;;;63.10;23.90;;;;;;;;;;5052673;28;20139;-81
2023/04/16 03:55:02;;;;;;;55.38;21.10;;;;;;;;;;5052543;28;20497;-81
2023/04/16 03:57:28;;;;;;;71.18;24.75;;;;;;;;;;5052531;28;20112;-80
2023/04/16 03:59:55;;;;;;;74.00;26.10;;;;;;;;;;5052197;28;20037;-81
2023/04/16 04:02:21;;;;;;;74.68;26.33;;;;;;;;;;5047431;28;20493;-80
2023/04/16 04:04:47;;;;;;;75.43;25.42;;;;;;;;;;5052909;28;20033;-81
2023/04/16 04:07:13;;;;;;;84.72;26.33;;;;;;;;;;5052808;28;20119;-80
2023/04/16 04:09:39;;;;;;;84.53;27.35;;;;;;;;;;5053570;28;20118;-81
2023/04/16 04:12:05;;;;;;;69.03;26.75;;;;;;;;;;5052396;28;20041;-80
2023/04/16 04:14:31;;;;;;;87.35;28.02;;;;;;;;;;5044644;28;20049;-80
2023/04/16 04:16:57;;;;;;;88.40;28.60;;;;;;;;;;5084821;28;20037;-80
2023/04/16 04:19:23;;;;;;;71.35;27.35;;;;;;;;;;5052346;28;20041;-81
2023/04/16 04:21:49;;;;;;;82.65;26.88;;;;;;;;;;5053112;28;20044;-81
2023/04/16 04:24:15;;;;;;;76.72;26.98;;;;;;;;;;5052197;28;20112;-81
2023/04/16 04:26:41;;;;;;;77.40;26.63;;;;;;;;;;5053019;28;20049;-80
2023/04/16 04:29:07;;;;;;;75.97;26.90;;;;;;;;;;5051889;28;20125;-81
2023/04/16 04:31:34;;;;;;;68.88;26.52;;;;;;;;;;5052223;28;20040;-81
2023/04/16 04:34:00;;;;;;;74.13;25.92;;;;;;;;;;5084996;28;20040;-81
2023/04/16 04:36:26;;;;;;;78.70;25.88;;;;;;;;;;5053450;28;20127;-80
2023/04/16 04:38:52;;;;;;;81.55;26.73;;;;;;;;;;5052720;28;20037;-81
2023/04/16 04:41:18;;;;;;;72.20;25.58;;;;;;;;;;5053226;28;20039;-80
2023/04/16 04:43:44;;;;;;;75.32;25.27;;;;;;;;;;5051022;28;20102;-81
2023/04/16 04:46:10;;;;;;;78.28;27.10;;;;;;;;;;5051651;28;20041;-81
2023/04/16 04:48:36;;;;;;;82.30;27.40;;;;;;;;;;5051762;28;20037;-81
2023/04/16 04:51:03;;;;;;;74.78;26.73;;;;;;;;;;5051487;28;20487;-81
2023/04/16 04:53:29;;;;;;;84.90;27.13;;;;;;;;;;5051579;28;20073;-81
2023/04/16 04:55:55;;;;;;;75.03;26.40;;;;;;;;;;5051402;28;20498;-81
2023/04/16 04:58:21;;;;;;;78.72;26.88;;;;;;;;;;5052635;28;20044;-81
2023/04/16 05:00:47;;;;;;;76.32;26.27;;;;;;;;;;5048875;28;20045;-81
2023/04/16 05:03:19;;;;;;;81.20;28.70;;;;;;;;;;5051145;28;20112;-82
2023/04/16 05:05:45;;;;;;;86.47;26.67;;;;;;;;;;5051779;28;20456;-81
2023/04/16 05:08:11;;;;;;;84.03;27.52;;;;;;;;;;5050953;28;20055;-81
2023/04/16 05:10:37;;;;;;;96.55;28.67;;;;;;;;;;5052569;28;20056;-81
2023/04/16 05:13:03;;;;;;;76.75;27.15;;;;;;;;;;5052104;28;20102;-81
2023/04/16 05:15:29;;;;;;;75.60;26.90;;;;;;;;;;5052311;28;20056;-82
2023/04/16 05:17:55;;;;;;;69.22;24.95;;;;;;;;;;5050850;28;20048;-81
2023/04/16 05:20:25;;;;;;;78.95;26.77;;;;;;;;;;5052517;28;20044;-80
2023/04/16 05:22:51;;;;;;;71.95;25.92;;;;;;;;;;5052170;28;20056;-81
2023/04/16 05:25:17;;;;;;;74.68;25.67;;;;;;;;;;5051325;28;20053;-81
2023/04/16 05:27:43;;;;;;;71.55;26.23;;;;;;;;;;5052419;28;20037;-80
2023/04/16 05:30:09;;;;;;;60.03;23.73;;;;;;;;;;5052052;28;20048;-80
2023/04/16 05:32:36;;;;;;;83.47;25.70;;;;;;;;;;5052439;28;20048;-81
2023/04/16 05:35:02;;;;;;;77.93;25.83;;;;;;;;;;5051948;28;20048;-80
2023/04/16 05:37:28;;;;;;;73.70;26.23;;;;;;;;;;5034463;28;20147;-81
2023/04/16 05:39:54;;;;;;;75.20;25.67;;;;;;;;;;5051596;28;20068;-81
2023/04/16 05:42:20;;;;;;;75.82;27.13;;;;;;;;;;5052435;28;20485;-80
2023/04/16 05:44:46;;;;;;;67.60;24.30;;;;;;;;;;5050818;28;20037;-81
2023/04/16 05:47:12;;;;;;;74.07;25.92;;;;;;;;;;5050572;28;20120;-81
2023/04/16 05:49:38;;;;;;;73.93;24.63;;;;;;;;;;5051124;28;20507;-81
2023/04/16 05:52:05;;;;;;;61.25;23.50;;;;;;;;;;5050712;28;20071;-81
2023/04/16 05:54:31;;;;;;;68.00;23.35;;;;;;;;;;5050576;28;20409;-81
2023/04/16 05:56:57;;;;;;;70.80;22.60;;;;;;;;;;5050217;28;20439;-82
2023/04/16 05:59:23;;;;;;;68.93;23.30;;;;;;;;;;5051783;28;20047;-82
2023/04/16 06:01:49;;;;;;;61.22;22.17;;;;;;;;;;5047102;28;20478;-81
2023/04/16 06:04:15;;;;;;;68.75;21.95;;;;;;;;;;5033910;28;20420;-81
2023/04/16 06:06:41;;;;;;;62.80;23.13;;;;;;;;;;5050942;28;20486;-81
2023/04/16 06:09:07;;;;;;;70.47;22.33;;;;;;;;;;5051507;28;20478;-81
2023/04/16 06:11:34;;;;;;;62.17;22.42;;;;;;;;;;5052129;28;20620;-81
2023/04/16 06:14:00;;;;;;;63.97;22.67;;;;;;;;;;5051330;28;20029;-81
2023/04/16 06:16:26;;;;;;;62.28;22.98;;;;;;;;;;5050803;28;20393;-81
2023/04/16 06:18:52;;;;;;;65.38;22.70;;;;;;;;;;5051900;28;20044;-82
2023/04/16 06:21:18;;;;;;;64.15;22.15;;;;;;;;;;5050152;28;20072;-81
2023/04/16 06:23:44;;;;;;;60.75;21.40;;;;;;;;;;5051821;28;20033;-81
2023/04/16 06:26:10;;;;;;;63.70;22.45;;;;;;;;;;5050043;28;20033;-81
2023/04/16 06:28:36;;;;;;;68.43;21.55;;;;;;;;;;5050713;28;20098;-81
2023/04/16 06:31:02;;;;;;;66.80;23.45;;;;;;;;;;5051431;28;20043;-81
2023/04/16 06:33:28;;;;;;;67.93;22.98;;;;;;;;;;5051150;28;20457;-81
2023/04/16 06:35:55;;;;;;;63.60;22.45;;;;;;;;;;5050776;28;20072;-82
2023/04/16 06:38:21;;;;;;;63.38;22.60;;;;;;;;;;5050228;28;20122;-81
2023/04/16 06:40:48;;;;;;;63.08;23.17;;;;;;;;;;5050519;28;20069;-81
2023/04/16 06:43:14;;;;;;;60.80;22.30;;;;;;;;;;5051825;28;20115;-81
2023/04/16 06:45:40;;;;;;;69.10;23.20;;;;;;;;;;5050397;28;20482;-81
2023/04/16 06:48:06;;;;;;;66.50;22.30;;;;;;;;;;5050351;28;20044;-82
2023/04/16 06:50:33;;;;;;;57.45;21.00;;;;;;;;;;5051603;28;20041;-81
2023/04/16 06:52:59;;;;;;;68.90;22.38;;;;;;;;;;5050110;28;20041;-81
2023/04/16 06:55:25;;;;;;;58.10;21.85;;;;;;;;;;5051453;28;20060;-81
2023/04/16 06:57:51;;;;;;;58.72;21.63;;;;;;;;;;5049948;28;20037;-81
2023/04/16 07:00:17;;;;;;;59.63;22.48;;;;;;;;;;5049502;28;20494;-81
2023/04/16 07:02:43;;;;;;;59.83;22.10;;;;;;;;;;5046353;28;20037;-81
2023/04/16 07:05:09;;;;;;;60.47;22.00;;;;;;;;;;5033505;28;20041;-81
2023/04/16 07:07:35;;;;;;;51.97;20.38;;;;;;;;;;5051311;28;20041;-82
2023/04/16 07:10:02;;;;;;;57.28;21.35;;;;;;;;;;5054261;28;20120;-82
2023/04/16 07:12:28;;;;;;;56.65;21.75;;;;;;;;;;5055622;28;20044;-81
2023/04/16 07:14:54;;;;;;;52.97;20.88;;;;;;;;;;5054716;28;20114;-81
2023/04/16 07:17:20;;;;;;;52.83;20.25;;;;;;;;;;5054323;28;20435;-81
2023/04/16 07:19:46;;;;;;;49.97;19.95;;;;;;;;;;5054690;28;20048;-81
2023/04/16 07:22:12;;;;;;;52.45;19.95;;;;;;;;;;5054196;28;20033;-81
2023/04/16 07:24:38;;;;;;;49.30;19.67;;;;;;;;;;5054856;28;20060;-81
2023/04/16 07:27:04;;;;;;;49.47;19.20;;;;;;;;;;5036319;28;20130;-81
2023/04/16 07:29:30;;;;;;;49.85;20.38;;;;;;;;;;5053689;28;20509;-82
2023/04/16 07:31:57;;;;;;;56.38;20.92;;;;;;;;;;5054466;28;20450;-81
2023/04/16 07:34:23;;;;;;;58.75;20.33;;;;;;;;;;5054217;28;20560;-82
2023/04/16 07:36:49;;;;;;;54.25;20.25;;;;;;;;;;5054260;28;20041;-81
2023/04/16 07:39:15;;;;;;;55.00;20.05;;;;;;;;;;5052819;28;20041;-81
2023/04/16 07:41:41;;;;;;;59.10;19.33;;;;;;;;;;5052946;28;20040;-81
2023/04/16 07:44:07;;;;;;;52.55;18.67;;;;;;;;;;5053886;28;20033;-81
2023/04/16 07:46:33;;;;;;;50.40;19.52;;;;;;;;;;5052875;28;20049;-81
2023/04/16 07:48:59;;;;;;;51.90;18.75;;;;;;;;;;5053197;28;20037;-81
2023/04/16 07:51:26;;;;;;;49.03;19.55;;;;;;;;;;5036117;28;20053;-81
2023/04/16 07:53:52;;;;;;;58.78;19.40;;;;;;;;;;5053026;28;20124;-81
2023/04/16 07:56:18;;;;;;;54.80;19.90;;;;;;;;;;5053448;28;20123;-82
2023/04/16 07:58:44;;;;;;;45.78;18.42;;;;;;;;;;5052923;28;20045;-81
2023/04/16 08:01:10;;;;;;;46.08;17.70;;;;;;;;;;5048492;28;20139;-82
2023/04/16 08:03:36;;;;;;;56.50;19.00;;;;;;;;;;5053890;28;20127;-82
2023/04/16 08:06:02;;;;;;;53.00;20.33;;;;;;;;;;5035818;28;20048;-82
2023/04/16 08:08:28;;;;;;;49.33;18.15;;;;;;;;;;5035928;28;20122;-81
2023/04/16 08:10:55;;;;;;;49.38;18.75;;;;;;;;;;5053850;28;20140;-81
2023/04/16 08:13:24;;;;;;;51.17;19.48;;;;;;;;;;5053429;28;20037;-82
2023/04/16 08:15:50;;;;;;;48.67;19.73;;;;;;;;;;5035771;28;20132;-82
2023/04/16 08:18:16;;;;;;;45.92;18.05;;;;;;;;;;5085845;28;20509;-82
2023/04/16 08:20:42;;;;;;;46.13;18.55;;;;;;;;;;5051543;28;20451;-82
2023/04/16 08:23:08;;;;;;;45.58;18.70;;;;;;;;;;5052186;28;20036;-81
2023/04/16 08:25:34;;;;;;;49.72;19.23;;;;;;;;;;5069027;28;20095;-81
2023/04/16 08:28:01;;;;;;;51.30;18.88;;;;;;;;;;5052301;28;20188;-81
2023/04/16 08:30:30;;;;;;;57.83;19.55;;;;;;;;;;5053203;28;20048;-81
2023/04/16 08:32:56;;;;;;;51.03;18.02;;;;;;;;;;5053321;28;20076;-81
2023/04/16 08:35:22;;;;;;;56.92;19.27;;;;;;;;;;5034766;28;20045;-81
2023/04/16 08:37:48;;;;;;;45.40;17.23;;;;;;;;;;5052267;28;20063;-82
2023/04/16 08:40:14;;;;;;;43.78;17.80;;;;;;;;;;5034942;28;20051;-81
2023/04/16 08:42:44;;;;;;;42.45;17.17;;;;;;;;;;5053296;28;20045;-82
2023/04/16 08:45:14;;;;;;;46.08;18.17;;;;;;;;;;5053156;28;20044;-82
2023/04/16 08:47:41;;;;;;;46.67;17.20;;;;;;;;;;5052767;28;20154;-82
2023/04/16 08:50:08;;;;;;;49.45;15.88;;;;;;;;;;5053175;28;20055;-82
2023/04/16 08:52:37;;;;;;;34.65;16.10;;;;;;;;;;5052763;28;20044;-82
2023/04/16 08:55:05;;;;;;;41.42;15.73;;;;;;;;;;5039041;28;20405;-82
2023/04/16 08:57:38;;;;;;;44.13;16.13;;;;;;;;;;5051414;28;20505;-81
2023/04/16 09:00:07;;;;;;;36.65;14.88;;;;;;;;;;5051634;28;20056;-82
2023/04/16 09:02:34;;;;;;;43.92;16.42;;;;;;;;;;5047356;28;20541;-82
2023/04/16 09:05:00;;;;;;;41.70;16.77;;;;;;;;;;5051580;28;20037;-82
2023/04/16 09:07:27;;;;;;;35.85;16.08;;;;;;;;;;5051420;28;20486;-82
2023/04/16 09:09:54;;;;;;;36.60;16.30;;;;;;;;;;5051634;28;20124;-81
2023/04/16 09:12:23;;;;;;;40.20;15.90;;;;;;;;;;5052217;28;20040;-82
2023/04/16 09:14:50;;;;;;;43.72;16.02;;;;;;;;;;5052276;28;20114;-82
2023/04/16 09:17:16;;;;;;;42.47;16.42;;;;;;;;;;5050747;28;20095;-82
2023/04/16 09:19:42;;;;;;;35.20;16.17;;;;;;;;;;5050959;28;20052;-82
2023/04/16 09:22:08;;;;;;;42.03;15.88;;;;;;;;;;5051466;28;20044;-82
2023/04/16 09:24:34;;;;;;;31.52;15.02;;;;;;;;;;5052083;28;20045;-83
2023/04/16 09:27:00;;;;;;;38.95;16.08;;;;;;;;;;5051415;28;20489;-82
2023/04/16 09:29:34;;;;;;;33.90;15.07;;;;;;;;;;5051879;28;20041;-82
2023/04/16 09:32:02;;;;;;;35.72;15.93;;;;;;;;;;5051130;28;20536;-81
2023/04/16 09:34:28;;;;;;;40.47;15.60;;;;;;;;;;5050817;28;20032;-81
2023/04/16 09:36:54;;;;;;;35.25;14.05;;;;;;;;;;5052195;28;20041;-81
2023/04/16 09:39:20;;;;;;;28.73;13.07;;;;;;;;;;5050600;28;20124;-82
2023/04/16 09:41:47;;;;;;;34.88;14.73;;;;;;;;;;5050883;28;20037;-81
2023/04/16 09:44:13;;;;;;;33.53;14.95;;;;;;;;;;5051867;28;20041;-81
2023/04/16 09:46:42;;;;;;;36.50;16.00;;;;;;;;;;5050824;28;20044;-81
2023/04/16 09:49:17;;;;;;;27.67;14.13;;;;;;;;;;5037372;28;20048;-81
2023/04/16 09:51:45;;;;;;;34.20;15.35;;;;;;;;;;5050524;28;20045;-81
2023/04/16 09:54:12;;;;;;;40.05;14.93;;;;;;;;;;5052362;28;20142;-81
2023/04/16 09:56:46;;;;;;;37.92;15.40;;;;;;;;;;5052261;28;20076;-81
2023/04/16 09:59:18;;;;;;;34.72;14.48;;;;;;;;;;5068114;28;20052;-81
2023/04/16 10:01:53;;;;;;;34.28;15.60;;;;;;;;;;5030198;28;20490;-81
2023/04/16 10:04:21;;;;;;;33.80;13.95;;;;;;;;;;5034156;28;20170;-81
2023/04/16 10:07:06;;;;;;;34.95;14.25;;;;;;;;;;5051926;28;20378;-82
2023/04/16 10:09:32;;;;;;;33.15;13.85;;;;;;;;;;5050774;28;20036;-81
2023/04/16 10:11:58;;;;;;;33.63;15.35;;;;;;;;;;5050653;28;20120;-81
2023/04/16 10:14:25;;;;;;;29.88;14.65;;;;;;;;;;5051431;28;20513;-82
2023/04/16 10:16:51;;;;;;;29.50;13.88;;;;;;;;;;5051919;28;20116;-82
2023/04/16 10:19:17;;;;;;;30.77;14.43;;;;;;;;;;5051718;28;20080;-82
2023/04/16 10:21:44;;;;;;;30.95;14.38;;;;;;;;;;5033471;28;20037;-82
2023/04/16 10:24:11;;;;;;;32.28;14.23;;;;;;;;;;5084329;28;20099;-81
2023/04/16 10:26:38;;;;;;;30.80;14.27;;;;;;;;;;5030492;28;20045;-81
2023/04/16 10:29:06;;;;;;;32.88;13.77;;;;;;;;;;5049054;28;20037;-81
2023/04/16 10:31:32;;;;;;;35.50;15.32;;;;;;;;;;5045616;28;20041;-81
2023/04/16 10:33:58;;;;;;;30.58;14.55;;;;;;;;;;5042391;28;20039;-82
2023/04/16 10:36:25;;;;;;;29.80;13.90;;;;;;;;;;5051489;28;20493;-81
2023/04/16 10:38:52;;;;;;;39.75;15.98;;;;;;;;;;5051855;28;20081;-81
2023/04/16 10:41:21;;;;;;;31.50;14.32;;;;;;;;;;5050332;28;20052;-82
2023/04/16 10:43:50;;;;;;;29.58;13.75;;;;;;;;;;5051623;28;20486;-81
2023/04/16 10:46:29;;;;;;;34.15;15.05;;;;;;;;;;5054356;28;20398;-81
2023/04/16 10:48:56;;;;;;;33.88;14.18;;;;;;;;;;5054143;28;20045;-81
2023/04/16 10:51:23;;;;;;;36.70;14.98;;;;;;;;;;5055357;28;20072;-81
2023/04/16 10:53:50;;;;;;;36.08;14.50;;;;;;;;;;5040891;28;20045;-81
2023/04/16 10:56:22;;;;;;;36.65;15.35;;;;;;;;;;5054055;28;20040;-81
2023/04/16 10:58:48;;;;;;;35.42;15.32;;;;;;;;;;5070372;28;20045;-81
2023/04/16 11:01:15;;;;;;;34.15;15.88;;;;;;;;;;5049565;28;20055;-81
2023/04/16 11:03:48;;;;;;;34.30;15.50;;;;;;;;;;5054922;28;20514;-81
2023/04/16 11:06:16;;;;;;;29.55;14.73;;;;;;;;;;5053972;28;20090;-81
2023/04/16 11:08:44;;;;;;;34.60;14.43;;;;;;;;;;5053286;28;20044;-81
2023/04/16 11:11:11;;;;;;;37.60;14.10;;;;;;;;;;5054085;28;20435;-81
2023/04/16 11:13:37;;;;;;;31.55;13.75;;;;;;;;;;5053117;28;20037;-81
2023/04/16 11:16:04;;;;;;;35.90;14.13;;;;;;;;;;5053527;28;20057;-81
2023/04/16 11:18:30;;;;;;;36.13;15.80;;;;;;;;;;5053176;28;20559;-82
2023/04/16 11:20:57;;;;;;;36.20;13.98;;;;;;;;;;5053447;28;20075;-81
2023/04/16 11:23:23;;;;;;;30.58;13.15;;;;;;;;;;5054873;28;20489;-81
2023/04/16 11:25:55;;;;;;;32.40;13.40;;;;;;;;;;5053058;28;20116;-81
2023/04/16 11:28:31;;;;;;;26.48;13.10;;;;;;;;;;5053554;28;20069;-81
2023/04/16 11:30:57;;;;;;;31.40;12.77;;;;;;;;;;5054760;28;20067;-81
2023/04/16 11:33:25;;;;;;;31.40;13.18;;;;;;;;;;5053350;28;20041;-81
2023/04/16 11:35:57;;;;;;;29.70;13.40;;;;;;;;;;5054280;28;20071;-82
2023/04/16 11:38:33;;;;;;;26.80;13.30;;;;;;;;;;5054411;28;20059;-82
2023/04/16 11:40:59;;;;;;;34.97;13.98;;;;;;;;;;5054435;28;20041;-81
2023/04/16 11:43:26;;;;;;;30.70;12.88;;;;;;;;;;5053308;28;20108;-82
2023/04/16 11:45:59;;;;;;;33.33;14.10;;;;;;;;;;5053939;28;20119;-82
2023/04/16 11:48:45;;;;;;;27.48;13.15;;;;;;;;;;5054340;28;20067;-81
2023/04/16 11:51:11;;;;;;;34.35;14.63;;;;;;;;;;5054152;28;20076;-82
2023/04/16 11:53:44;;;;;;;33.35;15.23;;;;;;;;;;5053819;28;20045;-81
2023/04/16 11:56:10;;;;;;;30.45;14.07;;;;;;;;;;5051591;28;20041;-81
2023/04/16 11:58:36;;;;;;;34.47;15.50;;;;;;;;;;5035618;28;20044;-81
2023/04/16 12:01:03;;;;;;;31.50;13.80;;;;;;;;;;5053974;28;20539;-81
2023/04/16 12:03:42;;;;;;;30.17;13.82;;;;;;;;;;5052558;28;20040;-82
2023/04/16 12:06:08;;;;;;;29.00;14.18;;;;;;;;;;5036563;28;20382;-82
2023/04/16 12:08:35;;;;;;;32.80;14.40;;;;;;;;;;5052377;28;20045;-82
2023/04/16 12:11:01;;;;;;;27.42;14.73;;;;;;;;;;5054039;28;20107;-82
2023/04/16 12:13:27;;;;;;;26.15;14.35;;;;;;;;;;5052791;28;20110;-82
2023/04/16 12:15:54;;;;;;;38.88;15.23;;;;;;;;;;5052182;28;20479;-82
2023/04/16 12:18:22;;;;;;;33.80;14.55;;;;;;;;;;5052487;28;20094;-82
2023/04/16 12:20:49;;;;;;;33.20;14.13;;;;;;;;;;5052580;28;20049;-82
2023/04/16 12:23:42;;;;;;;37.80;15.65;;;;;;;;;;5053008;28;20462;-82
2023/04/16 12:26:11;;;;;;;33.08;15.25;;;;;;;;;;5050515;28;20049;-82
2023/04/16 12:28:38;;;;;;;32.83;14.27;;;;;;;;;;5053849;28;20033;-82
2023/04/16 12:31:04;;;;;;;30.92;14.48;;;;;;;;;;5017605;28;20041;-82
2023/04/16 12:33:31;;;;;;;35.42;15.20;;;;;;;;;;5052663;28;20044;-82
2023/04/16 12:35:57;;;;;;;31.05;14.48;;;;;;;;;;5055352;28;20434;-82
2023/04/16 12:38:24;;;;;;;33.25;15.65;;;;;;;;;;5036643;28;20359;-82
2023/04/16 12:40:50;;;;;;;27.42;14.27;;;;;;;;;;5053663;28;20045;-82
2023/04/16 12:43:16;;;;;;;30.98;14.90;;;;;;;;;;5053429;28;20112;-82
2023/04/16 12:45:42;;;;;;;37.17;15.13;;;;;;;;;;5054720;28;20052;-82
2023/04/16 12:48:09;;;;;;;32.60;14.45;;;;;;;;;;5055042;28;20060;-83
2023/04/16 12:50:35;;;;;;;31.90;15.25;;;;;;;;;;5053623;28;20048;-82
2023/04/16 12:53:01;;;;;;;28.58;14.18;;;;;;;;;;5052202;28;20052;-82
2023/04/16 12:55:27;;;;;;;31.60;14.23;;;;;;;;;;5054803;28;20072;-83
2023/04/16 12:57:53;;;;;;;27.40;14.05;;;;;;;;;;5052866;28;20091;-82
2023/04/16 13:00:20;;;;;;;30.33;14.82;;;;;;;;;;5060934;28;20071;-83
2023/04/16 13:02:46;;;;;;;30.83;14.77;;;;;;;;;;5049643;28;20067;-82
2023/04/16 13:05:15;;;;;;;33.67;14.98;;;;;;;;;;5055699;28;20033;-82
2023/04/16 13:07:41;;;;;;;34.33;13.77;;;;;;;;;;5060337;28;20528;-82
2023/04/16 13:10:07;;;;;;;27.05;13.63;;;;;;;;;;5035541;28;20045;-83
2023/04/16 13:12:33;;;;;;;34.72;15.77;;;;;;;;;;5035489;28;20524;-83
2023/04/16 13:15:00;;;;;;;28.85;14.98;;;;;;;;;;5034627;28;20041;-82
2023/04/16 13:17:26;;;;;;;30.73;14.32;;;;;;;;;;5052064;28;20525;-82
2023/04/16 13:19:52;;;;;;;27.38;15.32;;;;;;;;;;5034819;28;20049;-82
2023/04/16 13:22:18;;;;;;;30.98;14.88;;;;;;;;;;5052372;28;20126;-83
2023/04/16 13:24:44;;;;;;;25.10;13.90;;;;;;;;;;5052823;28;20040;-82
2023/04/16 13:27:11;;;;;;;28.38;13.90;;;;;;;;;;5035422;28;20037;-82
2023/04/16 13:29:37;;;;;;;25.23;14.07;;;;;;;;;;5052383;28;20132;-82
2023/04/16 13:32:03;;;;;;;29.25;14.48;;;;;;;;;;5053469;28;20386;-82
2023/04/16 13:34:30;;;;;;;23.45;14.25;;;;;;;;;;5051986;28;20045;-83
2023/04/16 13:36:56;;;;;;;23.02;13.55;;;;;;;;;;5055130;28;20081;-82
2023/04/16 13:39:22;;;;;;;23.33;13.18;;;;;;;;;;5052798;28;20052;-82
2023/04/16 13:41:50;;;;;;;22.98;13.82;;;;;;;;;;5051503;28;20119;-84
2023/04/16 13:44:16;;;;;;;24.00;13.68;;;;;;;;;;5053624;28;20056;-83
2023/04/16 13:46:46;;;;;;;23.52;13.10;;;;;;;;;;5053892;28;20124;-82
2023/04/16 13:49:12;;;;;;;21.50;13.10;;;;;;;;;;5053306;28;20485;-82
2023/04/16 13:51:38;;;;;;;25.77;14.30;;;;;;;;;;5052013;28;20052;-82
2023/04/16 13:54:04;;;;;;;21.88;13.85;;;;;;;;;;5051026;28;20116;-82
2023/04/16 13:56:30;;;;;;;22.85;13.77;;;;;;;;;;5058518;28;20036;-83
2023/04/16 13:58:56;;;;;;;23.08;13.63;;;;;;;;;;5060214;28;20098;-83
2023/04/16 14:01:23;;;;;;;23.77;14.77;;;;;;;;;;5030882;28;20045;-83
2023/04/16 14:03:49;;;;;;;28.35;13.43;;;;;;;;;;5051220;28;20118;-83
2023/04/16 14:06:16;;;;;;;22.00;14.02;;;;;;;;;;5034512;28;20045;-82
2023/04/16 14:08:43;;;;;;;23.27;13.48;;;;;;;;;;5050911;28;20048;-83
2023/04/16 14:11:09;;;;;;;24.50;14.10;;;;;;;;;;5050641;28;20049;-82
2023/04/16 14:13:35;;;;;;;23.60;14.35;;;;;;;;;;5051328;28;20049;-82